Time;durP1;ratioP1;P1;durP2;ratioP2;P2;SDS_P1;SDS_P2;PMS_P1;PMS_P2;Temp;Humidity;BMP_temperature;BMP_pressure;BME280_temperature;BME280_humidity;BME280_pressure;Samples;Min_cycle;Max_cycle;Signal;HPM_P1;HPM_P2
2021/10/27 00:00:27;;;;;;;;;3.00;3.00;;;;;19.19;49.71;102200.13;5098382;27;45701;-65
2021/10/27 00:02:53;;;;;;;;;5.67;2.67;;;;;19.19;49.81;102197.44;5098305;27;45333;-64
2021/10/27 00:05:18;;;;;;;;;4.00;4.00;;;;;19.19;50.06;102195.69;5098667;27;45327;-63
2021/10/27 00:07:44;;;;;;;;;6.33;4.00;;;;;19.18;49.79;102187.69;5098221;27;45967;-63
2021/10/27 00:10:10;;;;;;;;;3.67;3.67;;;;;19.18;49.88;102193.03;5098307;27;45452;-63
2021/10/27 00:12:36;;;;;;;;;4.00;3.00;;;;;19.19;49.81;102194.78;5098150;27;45299;-64
2021/10/27 00:15:03;;;;;;;;;5.33;4.00;;;;;19.20;49.97;102193.91;5098278;27;45540;-63
2021/10/27 00:17:28;;;;;;;;;4.67;4.33;;;;;19.20;49.93;102199.25;5097981;27;46119;-63
2021/10/27 00:19:54;;;;;;;;;2.67;2.67;;;;;19.19;49.99;102195.69;5098094;27;45428;-64
2021/10/27 00:22:20;;;;;;;;;3.67;3.67;;;;;19.19;49.88;102200.13;5098346;27;45843;-63
2021/10/27 00:24:45;;;;;;;;;5.67;3.33;;;;;19.19;49.96;102202.78;5098231;27;45381;-63
2021/10/27 00:27:11;;;;;;;;;4.33;4.33;;;;;19.18;49.73;102204.59;5097696;27;47125;-64
2021/10/27 00:29:36;;;;;;;;;5.00;4.00;;;;;19.18;49.85;102206.34;5097834;27;45256;-65
2021/10/27 00:32:03;;;;;;;;;3.67;3.67;;;;;19.18;49.97;102204.59;5098035;27;45286;-63
2021/10/27 00:34:28;;;;;;;;;4.00;3.67;;;;;19.18;49.98;102209.00;5098120;27;45528;-63
2021/10/27 00:36:54;;;;;;;;;3.33;3.33;;;;;19.18;49.72;102209.00;5097721;27;46252;-63
2021/10/27 00:39:20;;;;;;;;;2.67;2.67;;;;;19.18;49.76;102209.00;5097398;27;45213;-64
2021/10/27 00:41:45;;;;;;;;;6.33;4.00;;;;;19.17;49.94;102199.22;5097696;27;45196;-65
2021/10/27 00:44:23;;;;;;;;;3.00;3.00;;;;;19.17;50.02;102208.13;5097932;27;45275;-64
2021/10/27 00:47:16;;;;;;;;;3.00;2.67;;;;;19.17;49.99;102212.56;5097418;27;46347;-64
2021/10/27 00:49:44;;;;;;;;;3.67;3.67;;;;;19.16;49.87;102210.78;5097497;27;45515;-63
2021/10/27 00:52:12;;;;;;;;;3.33;3.33;;;;;19.17;49.98;102204.56;5097691;27;45402;-62
2021/10/27 00:54:39;;;;;;;;;4.67;4.67;;;;;19.17;50.08;102207.22;5097411;27;45444;-62
2021/10/27 00:57:06;;;;;;;;;1.67;1.67;;;;;19.15;49.93;102208.97;5097330;27;46652;-62
2021/10/27 00:59:35;;;;;;;;;2.67;2.67;;;;;19.16;49.88;102216.97;5097364;27;45297;-63
2021/10/27 01:02:00;;;;;;;;;3.33;2.67;;;;;19.16;50.01;102216.13;5097484;27;45371;-63
2021/10/27 01:04:26;;;;;;;;;2.00;2.00;;;;;19.15;50.12;102211.66;5097829;27;45451;-62
2021/10/27 01:06:52;;;;;;;;;4.00;4.00;;;;;19.15;49.94;102209.88;5096934;27;46095;-63
2021/10/27 01:09:18;;;;;;;;;5.67;3.67;;;;;19.16;49.79;102205.44;5097459;27;45350;-63
2021/10/27 01:11:45;;;;;;;;;4.33;3.00;;;;;19.16;50.04;102208.97;5097427;27;45392;-63
2021/10/27 01:14:11;;;;;;;;;2.67;2.67;;;;;19.16;50.00;102208.13;5097472;27;45409;-64
2021/10/27 01:16:36;;;;;;;;;2.00;2.00;;;;;19.15;50.10;102199.22;5097164;27;46225;-63
2021/10/27 01:19:03;;;;;;;;;4.00;4.00;;;;;19.16;50.10;102201.00;5096930;27;45495;-63
2021/10/27 01:21:31;;;;;;;;;3.67;3.67;;;;;19.16;49.86;102193.00;5097464;27;45324;-63
2021/10/27 01:24:01;;;;;;;;;2.00;2.00;;;;;19.16;49.95;102192.13;5097250;27;45348;-63
2021/10/27 01:26:27;;;;;;;;;3.00;3.00;;;;;19.16;50.05;102194.78;5096755;27;46255;-63
2021/10/27 01:28:53;;;;;;;;;1.67;1.67;;;;;19.15;50.00;102193.88;5096871;27;45274;-65
2021/10/27 01:31:19;;;;;;;;;3.67;3.67;;;;;19.16;50.00;102194.78;5097105;27;45380;-66
2021/10/27 01:33:45;;;;;;;;;3.00;3.00;;;;;19.16;49.87;102192.13;5097093;27;45530;-63
2021/10/27 01:36:14;;;;;;;;;2.67;2.67;;;;;19.17;49.86;102188.56;5096829;27;47279;-64
2021/10/27 01:38:40;;;;;;;;;2.67;2.67;;;;;19.16;49.99;102189.47;5096847;27;45479;-63
2021/10/27 01:41:05;;;;;;;;;2.00;2.00;;;;;19.16;49.89;102181.47;5096902;27;45324;-62
2021/10/27 01:43:31;;;;;;;;;2.33;2.33;;;;;19.16;49.77;102190.31;5097430;27;45308;-65
2021/10/27 01:45:56;;;;;;;;;6.33;3.67;;;;;19.16;49.89;102178.78;5096877;27;46293;-63
2021/10/27 01:48:21;;;;;;;;;4.00;4.00;;;;;19.15;49.95;102177.91;5096932;27;45297;-64
2021/10/27 01:50:47;;;;;;;;;2.67;2.00;;;;;19.16;49.85;102176.13;5097035;27;45737;-65
2021/10/27 01:53:13;;;;;;;;;4.67;3.33;;;;;19.15;49.84;102172.56;5096866;27;45456;-63
2021/10/27 01:55:42;;;;;;;;;2.00;2.00;;;;;19.15;49.96;102172.56;5096681;27;46055;-65
2021/10/27 01:58:08;;;;;;;;;3.00;3.00;;;;;19.15;49.87;102177.91;5098634;27;45344;-65
2021/10/27 02:00:34;;;;;;;;;6.00;2.67;;;;;19.14;49.98;102167.22;5100446;27;45346;-64
2021/10/27 02:02:59;;;;;;;;;3.33;3.33;;;;;19.15;50.00;102171.66;5100468;27;45389;-64
2021/10/27 02:05:25;;;;;;;;;2.67;2.67;;;;;19.14;49.97;102172.53;5100443;27;45198;-64
2021/10/27 02:07:50;;;;;;;;;3.67;3.33;;;;;19.16;50.04;102173.47;5100180;27;45282;-63
2021/10/27 02:10:15;;;;;;;;;3.67;2.67;;;;;19.15;49.94;102163.69;5100135;27;45364;-63
2021/10/27 02:12:42;;;;;;;;;2.33;2.33;;;;;19.15;49.83;102147.69;5100695;27;45160;-63
2021/10/27 02:15:09;;;;;;;;;4.67;2.67;;;;;19.16;49.85;102152.16;5099839;27;46110;-64
2021/10/27 02:17:35;;;;;;;;;3.67;3.00;;;;;19.16;49.99;102154.81;5099843;27;45328;-64
2021/10/27 02:20:01;;;;;;;;;4.00;2.00;;;;;19.16;49.96;102146.81;5100168;27;45270;-63
2021/10/27 02:22:27;;;;;;;;;3.67;3.33;;;;;19.16;50.09;102155.69;5100237;27;45388;-63
2021/10/27 02:24:52;;;;;;;;;4.00;4.00;;;;;19.16;50.02;102150.34;5099764;27;46204;-63
2021/10/27 02:27:17;;;;;;;;;2.00;2.00;;;;;19.15;50.05;102156.56;5099662;27;45439;-65
2021/10/27 02:29:43;;;;;;;;;2.67;2.67;;;;;19.15;49.81;102150.34;5099866;27;45448;-65
2021/10/27 02:32:09;;;;;;;;;3.00;3.00;;;;;19.14;49.97;102160.06;5100127;27;45499;-63
2021/10/27 02:34:34;;;;;;;;;3.00;3.00;;;;;19.15;50.10;102161.00;5099581;27;46436;-63
2021/10/27 02:37:00;;;;;;;;;3.00;3.00;;;;;19.14;50.02;102162.75;5099796;27;45251;-63
2021/10/27 02:39:26;;;;;;;;;2.00;2.00;;;;;19.15;49.78;102155.69;5099667;27;45387;-62
2021/10/27 02:41:52;;;;;;;;;1.67;1.67;;;;;19.14;50.24;102161.88;5099912;27;45445;-64
2021/10/27 02:44:17;;;;;;;;;3.00;3.00;;;;;19.13;50.10;102157.41;5099322;27;46183;-64
2021/10/27 02:46:43;;;;;;;;;1.67;1.67;;;;;19.15;50.04;102153.00;5099637;27;45247;-63
2021/10/27 02:49:09;;;;;;;;;1.67;1.67;;;;;19.14;50.00;102154.75;5099777;27;45304;-62
2021/10/27 02:51:34;;;;;;;;;3.00;3.00;;;;;19.15;49.91;102163.69;5099832;27;45471;-63
2021/10/27 02:54:00;;;;;;;;;2.67;2.67;;;;;19.15;50.00;102163.69;5099379;27;45798;-62
2021/10/27 02:56:25;;;;;;;;;3.00;3.00;;;;;19.14;49.96;102159.22;5099411;27;45448;-63
2021/10/27 02:58:51;;;;;;;;;3.00;3.00;;;;;19.15;49.95;102155.69;5099618;27;45333;-63
2021/10/27 03:01:16;;;;;;;;;4.00;2.00;;;;;19.15;49.93;102166.34;5099550;27;45488;-63
2021/10/27 03:03:42;;;;;;;;;2.00;2.00;;;;;19.14;50.05;102164.53;5099259;27;46973;-62
2021/10/27 03:06:07;;;;;;;;;4.00;4.00;;;;;19.14;50.12;102162.75;5099170;27;45357;-63
2021/10/27 03:08:33;;;;;;;;;2.67;2.67;;;;;19.14;50.20;102159.22;5096988;27;45285;-63
2021/10/27 03:10:58;;;;;;;;;3.67;3.00;;;;;19.13;49.82;102158.31;5099460;27;45430;-63
2021/10/27 03:13:24;;;;;;;;;2.00;2.00;;;;;19.14;50.11;102159.22;5099341;27;45909;-64
2021/10/27 03:15:49;;;;;;;;;4.33;2.67;;;;;19.13;50.06;102160.06;5099147;27;45422;-65
2021/10/27 03:18:15;;;;;;;;;3.67;2.33;;;;;19.14;50.11;102159.22;5099084;27;45409;-63
2021/10/27 03:20:41;;;;;;;;;2.33;2.33;;;;;19.13;49.99;102146.75;5099364;27;45465;-62
2021/10/27 03:23:06;;;;;;;;;1.67;1.67;;;;;19.13;49.97;102142.31;5099084;27;46027;-63
2021/10/27 03:25:32;;;;;;;;;3.00;2.67;;;;;19.12;50.02;102140.53;5098924;27;45735;-64
2021/10/27 03:27:57;;;;;;;;;3.33;2.67;;;;;19.13;49.93;102137.00;5099090;27;45753;-63
2021/10/27 03:30:23;;;;;;;;;2.67;2.67;;;;;19.13;49.82;102139.66;5099178;27;45469;-65
2021/10/27 03:32:51;;;;;;;;;4.33;3.67;;;;;19.15;50.18;102139.69;5098453;27;46242;-64
2021/10/27 03:35:16;;;;;;;;;1.33;1.33;;;;;19.14;50.12;102132.56;5098882;27;45387;-63
2021/10/27 03:37:41;;;;;;;;;3.33;3.00;;;;;19.13;50.17;102136.09;5098847;27;45380;-65
2021/10/27 03:40:08;;;;;;;;;2.67;2.67;;;;;19.14;50.37;102129.88;5099095;27;45450;-64
2021/10/27 03:42:33;;;;;;;;;2.33;2.33;;;;;19.14;49.89;102132.56;5098516;27;46027;-63
2021/10/27 03:44:58;;;;;;;;;3.33;3.00;;;;;19.13;50.03;102134.31;5098647;27;45324;-63
2021/10/27 03:47:24;;;;;;;;;1.67;1.67;;;;;19.14;50.06;102128.09;5098888;27;45367;-64
2021/10/27 03:49:49;;;;;;;;;1.67;1.67;;;;;19.14;50.08;102133.41;5098905;27;45663;-65
2021/10/27 03:52:15;;;;;;;;;1.33;1.33;;;;;19.15;49.78;102137.03;5098580;27;46265;-65
2021/10/27 03:54:41;;;;;;;;;1.67;1.67;;;;;19.14;49.85;102143.22;5098247;27;45240;-65
2021/10/27 03:57:07;;;;;;;;;2.67;2.33;;;;;19.13;50.04;102141.41;5098495;27;45805;-65
2021/10/27 03:59:32;;;;;;;;;3.00;2.33;;;;;19.13;50.05;102144.09;5098641;27;45468;-65
2021/10/27 04:01:58;;;;;;;;;3.67;3.67;;;;;19.13;50.20;102149.41;5098305;27;47053;-64
2021/10/27 04:04:23;;;;;;;;;3.00;3.00;;;;;19.14;50.06;102151.22;5098432;27;45428;-63
2021/10/27 04:06:48;;;;;;;;;2.33;2.33;;;;;19.13;50.17;102144.09;5098336;27;45432;-64
2021/10/27 04:09:14;;;;;;;;;2.00;2.00;;;;;19.12;50.05;102139.66;5098746;27;45359;-64
2021/10/27 04:11:40;;;;;;;;;1.67;1.67;;;;;19.13;50.03;102134.31;5098027;27;46988;-65
2021/10/27 04:14:06;;;;;;;;;2.67;2.67;;;;;19.13;50.07;102131.66;5098126;27;45381;-62
2021/10/27 04:16:32;;;;;;;;;2.67;2.67;;;;;19.13;50.06;102125.44;5098216;27;45267;-63
2021/10/27 04:18:57;;;;;;;;;2.00;2.00;;;;;19.13;50.20;102130.75;5098279;27;45301;-65
2021/10/27 04:21:22;;;;;;;;;2.67;2.67;;;;;19.12;49.86;102129.00;5097687;27;47371;-62
2021/10/27 04:23:48;;;;;;;;;3.33;3.33;;;;;19.13;50.07;102141.41;5098199;27;45252;-64
2021/10/27 04:26:13;;;;;;;;;2.00;2.00;;;;;19.14;50.01;102145.88;5097282;27;45566;-62
2021/10/27 04:28:38;;;;;;;;;1.67;1.67;;;;;19.14;49.90;102146.75;5098203;27;45206;-63
2021/10/27 04:31:04;;;;;;;;;2.00;2.00;;;;;19.15;49.97;102148.59;5097429;27;46213;-64
2021/10/27 04:33:30;;;;;;;;;2.00;2.00;;;;;19.13;49.90;102149.41;5097629;27;45317;-63
2021/10/27 04:35:55;;;;;;;;;3.00;3.00;;;;;19.15;50.09;102145.00;5097879;27;45324;-63
2021/10/27 04:38:21;;;;;;;;;1.67;1.67;;;;;19.14;50.05;102153.88;5098080;27;45420;-63
2021/10/27 04:40:47;;;;;;;;;3.00;3.00;;;;;19.14;49.92;102159.22;5097482;27;46197;-62
2021/10/27 04:43:12;;;;;;;;;1.67;1.67;;;;;19.15;49.86;102166.34;5097379;27;45426;-64
2021/10/27 04:45:38;;;;;;;;;2.67;1.67;;;;;19.14;49.66;102169.88;5097670;27;45413;-65
2021/10/27 04:48:04;;;;;;;;;3.00;3.00;;;;;19.14;50.18;102168.06;5097710;27;45376;-65
2021/10/27 04:50:30;;;;;;;;;3.00;3.00;;;;;19.15;49.86;102161.00;5097557;27;47157;-63
2021/10/27 04:52:55;;;;;;;;;2.67;2.67;;;;;19.15;50.23;102161.91;5097661;27;45414;-63
2021/10/27 04:55:21;;;;;;;;;2.00;2.00;;;;;19.15;50.21;102161.00;5097675;27;45379;-64
2021/10/27 04:57:47;;;;;;;;;3.00;2.67;;;;;19.15;50.15;102161.91;5097832;27;45429;-64
2021/10/27 05:00:13;;;;;;;;;2.33;2.33;;;;;19.16;50.10;102157.47;5097301;27;46251;-63
2021/10/27 05:02:39;;;;;;;;;3.00;3.00;;;;;19.15;49.96;102153.00;5097220;27;45288;-64
2021/10/27 05:05:06;;;;;;;;;2.00;2.00;;;;;19.16;50.10;102154.81;5097381;27;45280;-63
2021/10/27 05:07:31;;;;;;;;;2.00;2.00;;;;;19.15;50.31;102167.25;5097742;27;45180;-64
2021/10/27 05:09:57;;;;;;;;;2.00;2.00;;;;;19.16;49.93;102153.00;5096958;27;45407;-62
2021/10/27 05:12:23;;;;;;;;;2.67;2.67;;;;;19.16;50.21;102153.00;5097244;27;45351;-63
2021/10/27 05:14:48;;;;;;;;;2.33;2.33;;;;;19.16;49.87;102152.16;5097319;27;45372;-62
2021/10/27 05:17:15;;;;;;;;;3.00;3.00;;;;;19.16;49.97;102158.34;5097358;27;45314;-63
2021/10/27 05:19:43;;;;;;;;;2.33;2.00;;;;;19.17;50.04;102167.22;5097073;27;46098;-62
2021/10/27 05:22:10;;;;;;;;;3.00;3.00;;;;;19.16;49.86;102154.81;5096971;27;45271;-62
2021/10/27 05:24:36;;;;;;;;;3.33;3.33;;;;;19.15;49.94;102150.34;5097294;27;45360;-62
2021/10/27 05:27:02;;;;;;;;;3.00;2.00;;;;;19.16;50.09;102146.81;5097204;27;45580;-62
2021/10/27 05:29:28;;;;;;;;;2.00;0.67;;;;;19.15;50.16;102148.59;5096787;27;46367;-63
2021/10/27 05:31:53;;;;;;;;;2.33;2.33;;;;;19.16;50.04;102157.47;5097287;27;45368;-64
2021/10/27 05:34:19;;;;;;;;;5.67;3.67;;;;;19.16;49.84;102152.16;5100546;27;45308;-63
2021/10/27 05:36:45;;;;;;;;;2.00;2.00;;;;;19.16;49.73;102153.00;5100861;27;45519;-62
2021/10/27 05:39:13;;;;;;;;;2.67;2.67;;;;;19.16;49.84;102152.16;5100536;27;45415;-63
2021/10/27 05:41:44;;;;;;;;;2.00;2.00;;;;;19.16;49.92;102155.69;5100658;27;45352;-63
2021/10/27 05:44:09;;;;;;;;;3.33;3.33;;;;;19.16;49.88;102146.81;5100500;27;45356;-63
2021/10/27 05:46:35;;;;;;;;;3.33;3.33;;;;;19.15;50.18;102140.59;5100584;27;45325;-62
2021/10/27 05:49:06;;;;;;;;;3.67;3.33;;;;;19.16;50.08;102130.81;5100511;27;46180;-62
2021/10/27 05:56:53;;;;;;;;;3.67;2.33;;;;;19.16;50.00;102136.16;5099719;27;45423;-62
2021/10/27 05:59:18;;;;;;;;;2.33;2.33;;;;;19.16;50.32;102136.16;5099952;27;46345;-62
2021/10/27 06:01:44;;;;;;;;;3.33;2.00;;;;;19.16;50.01;102130.81;5099000;27;45985;-61
2021/10/27 06:04:09;;;;;;;;;1.67;1.67;;;;;19.16;50.05;102137.00;5100525;27;45522;-62
2021/10/27 06:06:34;;;;;;;;;4.00;3.00;;;;;19.16;50.02;102136.16;5100256;27;45508;-62
2021/10/27 06:09:00;;;;;;;;;5.67;3.67;;;;;19.15;50.29;102129.91;5100291;27;46997;-65
2021/10/27 06:11:26;;;;;;;;;4.00;2.33;;;;;19.17;50.03;102129.91;5100212;27;45376;-62
2021/10/27 06:13:51;;;;;;;;;4.00;3.67;;;;;19.17;50.20;102135.25;5100287;27;45443;-64
2021/10/27 06:16:17;;;;;;;;;5.33;3.00;;;;;19.15;50.20;102148.59;5100272;27;45367;-66
2021/10/27 06:18:43;;;;;;;;;3.00;3.00;;;;;19.16;49.99;102138.81;5099812;27;46343;-63
2021/10/27 06:21:11;;;;;;;;;3.00;3.00;;;;;19.15;50.09;102140.59;5100051;27;45382;-65
2021/10/27 06:23:39;;;;;;;;;4.67;3.67;;;;;19.15;50.16;102139.69;5100237;27;45407;-65
2021/10/27 06:26:05;;;;;;;;;4.00;4.00;;;;;19.15;50.00;102140.59;5100174;27;45789;-63
2021/10/27 06:28:35;;;;;;;;;3.67;3.67;;;;;19.14;49.85;102132.56;5099542;27;47126;-63
2021/10/27 06:31:10;;;;;;;;;3.00;3.00;;;;;19.14;50.16;102132.56;5099778;27;45365;-63
2021/10/27 06:36:28;;;;;;;;;6.00;4.33;;;;;19.14;49.89;102136.09;5100054;27;45356;-63
2021/10/27 06:46:48;;;;;;;;;3.67;3.67;;;;;19.13;50.02;102144.09;5100137;27;45257;-63
2021/10/27 06:49:13;;;;;;;;;5.67;5.00;;;;;19.11;49.99;102144.09;5099453;27;46117;-62
2021/10/27 06:51:38;;;;;;;;;8.33;5.00;;;;;19.11;49.79;102149.41;5099180;27;45475;-62
2021/10/27 06:54:04;;;;;;;;;4.67;4.67;;;;;19.12;50.05;102160.97;5099635;27;45432;-62
2021/10/27 06:56:30;;;;;;;;;3.67;3.67;;;;;19.12;49.77;102163.66;5099684;27;45213;-61
2021/10/27 07:02:08;;;;;;;;;5.33;5.33;;;;;19.10;49.85;102169.84;5099145;27;45367;-62
2021/10/27 07:15:34;;;;;;;;;6.33;5.67;;;;;19.09;49.80;102178.75;5056257;28;45205;-62
2021/10/27 07:18:00;;;;;;;;;3.33;3.00;;;;;19.09;49.85;102178.75;5056303;28;45403;-62
2021/10/27 07:20:27;;;;;;;;;4.67;4.67;;;;;19.09;49.93;102184.06;5056192;28;46979;-62
2021/10/27 07:23:02;;;;;;;;;4.00;4.00;;;;;19.10;49.68;102192.94;5056129;28;45422;-62
2021/10/27 07:25:33;;;;;;;;;4.00;4.00;;;;;19.09;50.00;102200.06;5056247;28;45368;-63
2021/10/27 07:27:58;;;;;;;;;6.00;5.00;;;;;19.09;49.80;102200.06;5056249;28;45402;-62
2021/10/27 07:30:23;;;;;;;;;6.00;4.33;;;;;19.08;49.74;102203.59;5055529;28;46354;-62
2021/10/27 07:32:53;;;;;;;;;7.67;6.00;;;;;19.09;49.99;102201.81;5055705;28;45485;-62
2021/10/27 07:35:27;;;;;;;;;5.00;5.00;;;;;19.08;49.98;102205.34;5056115;28;45503;-62
2021/10/27 07:40:46;;;;;;;;;3.67;3.67;;;;;19.09;49.67;102209.81;5055567;28;45327;-63
2021/10/27 07:43:20;;;;;;;;;5.33;5.33;;;;;19.08;49.99;102210.69;5055740;28;45356;-62
2021/10/27 07:45:46;;;;;;;;;5.00;5.00;;;;;19.09;49.69;102215.16;5064238;27;45435;-63
2021/10/27 07:48:13;;;;;;;;;6.33;4.67;;;;;19.08;49.88;102216.91;5098634;27;45443;-63
2021/10/27 07:50:39;;;;;;;;;6.33;5.00;;;;;19.07;49.74;102215.16;5098314;27;46969;-63
2021/10/27 07:53:08;;;;;;;;;7.00;5.00;;;;;19.09;49.96;102221.38;5098365;27;45342;-62
2021/10/27 07:55:39;;;;;;;;;6.00;6.00;;;;;19.07;49.85;102212.50;5097874;27;45395;-62
2021/10/27 07:58:05;;;;;;;;;7.00;7.00;;;;;19.08;49.62;102218.69;5098576;27;45531;-62
2021/10/27 08:00:30;;;;;;;;;5.67;5.00;;;;;19.07;49.86;102220.47;5098122;27;46372;-63
2021/10/27 08:03:00;;;;;;;;;5.00;5.00;;;;;19.07;49.56;102223.16;5098023;27;45308;-62
2021/10/27 08:05:29;;;;;;;;;5.33;4.67;;;;;19.07;49.79;102216.91;5098507;27;45320;-62
2021/10/27 08:07:54;;;;;;;;;7.00;6.00;;;;;19.07;49.83;102223.16;5098329;27;45332;-63
2021/10/27 08:10:21;;;;;;;;;4.67;3.67;;;;;19.07;49.74;102228.47;5098228;27;45385;-62
2021/10/27 08:12:49;;;;;;;;;5.67;5.67;;;;;19.09;49.86;102225.81;5098268;27;45430;-62
2021/10/27 08:15:14;;;;;;;;;9.00;6.67;;;;;19.08;49.79;102230.25;5097934;27;45481;-62
2021/10/27 08:17:40;;;;;;;;;7.00;5.67;;;;;19.09;49.65;102229.38;5098228;27;45278;-62
2021/10/27 08:20:08;;;;;;;;;6.00;5.00;;;;;19.09;49.61;102228.47;5097715;27;46192;-64
2021/10/27 08:22:34;;;;;;;;;6.67;5.67;;;;;19.09;49.62;102226.72;5097880;27;45482;-64
2021/10/27 08:25:05;;;;;;;;;7.00;6.33;;;;;19.08;49.77;102224.00;5098137;27;45352;-63
2021/10/27 08:27:34;;;;;;;;;5.67;5.67;;;;;19.08;49.75;102224.91;5098200;27;45270;-63
2021/10/27 08:30:03;;;;;;;;;5.00;5.00;;;;;19.08;49.44;102224.00;5097469;27;47159;-63
2021/10/27 08:32:40;;;;;;;;;6.67;4.67;;;;;19.08;49.47;102222.25;5097530;27;45398;-62
2021/10/27 08:35:06;;;;;;;;;6.67;6.67;;;;;19.07;49.61;102215.16;5097699;27;45367;-62
2021/10/27 08:37:31;;;;;;;;;6.00;6.00;;;;;19.09;49.53;102216.06;5098013;27;45159;-63
2021/10/27 08:39:56;;;;;;;;;6.33;6.33;;;;;19.08;49.60;102213.34;5097830;27;46076;-65
2021/10/27 08:42:24;;;;;;;;;7.33;7.33;;;;;19.08;49.49;102211.59;5097524;27;45355;-64
2021/10/27 08:44:49;;;;;;;;;8.67;6.00;;;;;19.07;49.70;102207.16;5097728;27;45237;-62
2021/10/27 08:47:15;;;;;;;;;5.33;5.00;;;;;19.07;49.59;102207.16;5113766;27;45433;-62
2021/10/27 08:49:42;;;;;;;;;7.00;5.33;;;;;19.08;49.47;102203.59;5097644;27;45559;-63
2021/10/27 08:52:11;;;;;;;;;5.67;4.67;;;;;19.08;49.68;102216.03;5097694;27;45675;-62
2021/10/27 08:54:37;;;;;;;;;6.00;6.00;;;;;19.08;49.77;102208.03;5097499;27;45344;-62
2021/10/27 08:57:09;;;;;;;;;7.67;6.33;;;;;19.08;49.45;102211.59;5097755;27;45436;-63
2021/10/27 08:59:44;;;;;;;;;6.00;4.67;;;;;19.06;49.49;102210.69;5097281;27;46147;-63
2021/10/27 09:02:22;;;;;;;;;6.00;5.00;;;;;19.06;49.52;102208.03;5096132;27;45384;-63
2021/10/27 09:36:00;;;;;;;;;6.67;6.33;;;;;19.05;49.73;102202.69;5097106;27;45294;-66
2021/10/27 10:06:17;;;;;;;;;8.50;7.50;;;;;19.04;49.42;102200.91;5033473;28;45741;-63
2021/10/27 10:08:44;;;;;;;;;10.33;8.00;;;;;19.04;49.55;102200.91;5033300;28;45425;-65
2021/10/27 10:11:11;;;;;;;;;7.00;6.67;;;;;19.05;49.56;102200.94;5033481;28;45423;-64
2021/10/27 10:13:38;;;;;;;;;6.33;6.33;;;;;19.05;49.58;102198.25;5033620;28;45407;-64
2021/10/27 10:16:06;;;;;;;;;6.33;6.00;;;;;19.07;49.52;102203.59;5033254;28;46972;-63
2021/10/27 10:18:32;;;;;;;;;9.00;5.67;;;;;19.06;49.49;102192.03;5067819;27;45293;-62
2021/10/27 10:20:59;;;;;;;;;7.33;6.67;;;;;19.07;49.40;102199.16;5100220;27;45566;-62
2021/10/27 10:23:25;;;;;;;;;6.00;5.67;;;;;19.08;49.41;102198.25;5100366;27;45300;-62
2021/10/27 10:25:55;;;;;;;;;6.00;6.00;;;;;19.08;49.50;102205.34;5099591;27;46884;-63
2021/10/27 10:28:26;;;;;;;;;7.33;7.00;;;;;19.08;49.61;102203.59;5099920;27;45293;-64
2021/10/27 10:30:58;;;;;;;;;6.00;6.00;;;;;19.09;49.65;102208.06;5099924;27;45388;-65
2021/10/27 10:33:35;;;;;;;;;7.67;7.67;;;;;19.10;49.42;102201.81;5099861;27;45750;-64
2021/10/27 10:36:15;;;;;;;;;10.67;7.67;;;;;19.12;49.65;102203.63;5099677;27;46396;-63
2021/10/27 11:42:47;;;;;;;;;11.00;10.00;;;;;19.22;49.46;102144.16;5035440;28;45985;-65
2021/10/27 11:45:51;;;;;;;;;11.00;11.00;;;;;19.22;49.94;102138.84;5035404;28;45482;-63
2021/10/27 11:48:21;;;;;;;;;10.67;8.00;;;;;19.22;49.67;102138.84;5035500;28;45465;-63
2021/10/27 11:50:46;;;;;;;;;10.00;8.33;;;;;19.23;49.73;102142.41;5035972;28;45343;-63
2021/10/27 11:53:32;;;;;;;;;10.33;9.33;;;;;19.24;49.71;102130.84;5035292;28;46253;-63
2021/10/27 11:56:08;;;;;;;;;8.67;7.33;;;;;19.24;49.70;102125.50;5035442;28;45350;-62
2021/10/27 11:58:40;;;;;;;;;8.67;8.67;;;;;19.24;49.58;102125.50;5035335;28;45359;-63
2021/10/27 12:01:07;;;;;;;;;8.00;8.00;;;;;19.24;49.90;102125.50;5035525;28;45431;-63
2021/10/27 12:03:38;;;;;;;;;11.33;8.00;;;;;19.24;49.46;102115.75;5035259;28;45430;-63
2021/10/27 12:06:14;;;;;;;;;8.33;8.33;;;;;19.24;49.79;102112.19;5035151;28;45466;-63
2021/10/27 12:11:49;;;;;;;;;10.33;8.33;;;;;19.24;49.86;102102.41;5035543;28;45346;-62
2021/10/27 12:14:18;;;;;;;;;10.00;10.00;;;;;19.23;49.77;102097.94;5035099;28;45370;-62
2021/10/27 12:19:24;;;;;;;;;8.00;8.00;;;;;19.25;49.79;102087.31;5055337;27;45431;-65
2021/10/27 12:22:18;;;;;;;;;12.00;9.00;;;;;19.24;49.62;102088.19;5098135;27;45466;-66
2021/10/27 12:24:43;;;;;;;;;12.33;9.00;;;;;19.24;49.49;102080.19;5097059;27;46776;-65
2021/10/27 12:27:21;;;;;;;;;8.67;8.67;;;;;19.24;49.59;102077.53;5097690;27;45482;-63
2021/10/27 12:29:55;;;;;;;;;7.00;7.00;;;;;19.24;49.83;102075.75;5096708;27;45361;-64
2021/10/27 12:32:22;;;;;;;;;8.33;8.33;;;;;19.21;49.61;102065.06;5097496;27;45341;-63
2021/10/27 12:34:49;;;;;;;;;10.33;8.00;;;;;19.24;49.69;102064.19;5097654;27;46468;-64
2021/10/27 12:40:13;;;;;;;;;13.00;8.67;;;;;19.23;49.62;102055.31;5097869;27;45499;-63
2021/10/27 12:42:39;;;;;;;;;11.33;9.00;;;;;19.24;49.86;102050.88;5097677;27;45167;-64
2021/10/27 12:45:05;;;;;;;;;13.00;7.67;;;;;19.24;49.56;102042.88;5097540;27;46361;-63
2021/10/27 12:47:36;;;;;;;;;10.00;8.00;;;;;19.21;49.67;102038.41;5097527;27;45508;-63
2021/10/27 12:50:11;;;;;;;;;6.67;6.00;;;;;19.23;49.46;102039.31;5097823;27;45453;-62
2021/10/27 12:52:50;;;;;;;;;7.33;7.33;;;;;19.24;49.59;102048.19;5097660;27;45393;-63
2021/10/27 12:55:26;;;;;;;;;7.00;6.00;;;;;19.24;49.48;102033.09;5097261;27;46100;-63
2021/10/27 12:58:00;;;;;;;;;10.67;8.67;;;;;19.24;49.77;102030.44;5097369;27;45317;-62
2021/10/27 13:03:22;;;;;;;;;8.67;7.33;;;;;19.25;49.74;102029.53;5097727;27;45512;-64
2021/10/27 13:05:54;;;;;;;;;10.67;10.33;;;;;19.23;49.54;102023.31;5097088;27;47226;-65
2021/10/27 13:08:45;;;;;;;;;10.33;7.67;;;;;19.23;49.76;102019.78;5097460;27;45218;-63
2021/10/27 13:14:02;;;;;;;;;7.67;7.33;;;;;19.24;49.48;102018.88;5097427;27;45471;-62
2021/10/27 13:32:13;;;;;;;;;8.33;8.33;;;;;19.24;49.78;101994.88;5097144;27;45310;-65
2021/10/27 13:34:39;;;;;;;;;8.33;7.67;;;;;19.24;49.85;101989.56;5097043;27;45415;-66
2021/10/27 13:37:07;;;;;;;;;8.33;8.00;;;;;19.23;49.89;101978.00;5096828;27;45164;-65
2021/10/27 13:39:33;;;;;;;;;8.33;8.00;;;;;19.24;49.82;101984.22;5097116;27;45302;-65
2021/10/27 13:42:01;;;;;;;;;7.67;6.67;;;;;19.24;49.61;101985.13;5097077;27;45403;-63
2021/10/27 13:44:32;;;;;;;;;8.00;7.00;;;;;19.23;49.57;101974.47;5097340;27;45321;-66
2021/10/27 13:47:16;;;;;;;;;8.00;8.00;;;;;19.23;49.71;101978.00;5096941;27;45486;-66
2021/10/27 13:49:54;;;;;;;;;10.33;9.33;;;;;19.19;49.53;101969.13;5096775;27;45147;-65
2021/10/27 14:11:02;;;;;;;;;7.67;6.67;;;;;19.21;49.79;101942.44;5100024;27;45396;-66
2021/10/27 14:18:39;;;;;;;;;7.67;7.33;;;;;19.21;49.99;101942.44;5099970;27;46072;-65
2021/10/27 14:40:54;;;;;;;;;7.33;7.33;;;;;19.21;49.68;101929.13;5099457;27;45664;-63
2021/10/27 15:21:15;;;;;;;;;8.33;6.67;;;;;19.18;49.87;101894.50;4957246;28;45350;-66
2021/10/27 15:29:10;;;;;;;;;8.33;7.33;;;;;19.18;49.79;101894.50;4976309;28;45289;-63
2021/10/27 15:42:36;;;;;;;;;7.33;5.00;;;;;19.20;49.85;101887.38;4956786;28;45363;-62
2021/10/27 15:50:46;;;;;;;;;8.33;6.33;;;;;19.18;49.68;101875.84;5035608;28;45398;-65
2021/10/27 15:53:11;;;;;;;;;5.67;5.67;;;;;19.19;49.79;101877.59;5035592;28;45417;-64
2021/10/27 15:55:37;;;;;;;;;7.00;6.00;;;;;19.18;49.79;101878.50;5035147;28;46022;-63
2021/10/27 15:58:03;;;;;;;;;6.33;5.67;;;;;19.19;49.61;101877.59;5035160;28;45443;-62
2021/10/27 16:00:29;;;;;;;;;6.33;6.33;;;;;19.19;49.81;101881.16;5035498;28;45518;-63
2021/10/27 16:02:54;;;;;;;;;5.67;5.33;;;;;19.19;49.61;101875.81;5035561;28;45425;-65
2021/10/27 16:05:20;;;;;;;;;7.33;6.00;;;;;19.20;49.76;101874.06;5064055;27;46010;-62
2021/10/27 16:07:48;;;;;;;;;7.33;5.67;;;;;19.20;49.72;101871.38;5098034;27;45570;-63
2021/10/27 16:10:15;;;;;;;;;5.00;5.00;;;;;19.20;49.78;101874.06;5098106;27;45342;-64
2021/10/27 16:12:41;;;;;;;;;6.00;5.67;;;;;19.20;49.76;101877.63;5098350;27;45542;-63
2021/10/27 16:15:13;;;;;;;;;7.00;6.67;;;;;19.20;49.65;101876.72;5098196;27;46163;-63